BAW33 VHHH-EGLL
Flight info
| Callsign | BAW33 |
|---|---|
| Flight time | N/A |
| Altitude | 34100 |
| Route | BEKOL A461 SHL W22 TEPID W24 OSNOV G586 QP B330 ELKAL W179 IGNAK/K0928S1010 W179 WFX/K0917S1040 W179 OMBON W195 VIDEK/K0922S1010 W195 LAXAL/K0913S1040 W195 IDOPA W197 ANDIM B215 IBANO G470 AKLAS W192 FKG A368 SARIN/K0904F340 N161 GASBI/N0493F340 N161 LEYLA T916 MATAL DCT REBLO UR317 TBN UM11 CRM/N0494F360 UL746 ODERO DCT OPT DCT TEGRI DCT GAZDA DCT ARSIN DCT PEROL DCT RENKA DCT INBED DCT BOMBI DCT DENUT L608 LOGAN |
| Aircraft | A35K/H-SDE2E3GHIJ3J4J5LM1ORWXY/LB1D1 |
Departure
| Time | 2026-05-05 19:21 |
|---|---|
| Airport | Hong Kong International Airport (VHHH) |
Arrival
| Time | N/A |
|---|---|
| Airport | London Heathrow Airport (EGLL) |
| Time | Latitude | Longitude | Altitude | Speed | Heading |
|---|---|---|---|---|---|
| 2026-05-05 18:34 | 22.31459 | 113.93002 | 37 ft | 0 kts | 161° |
| 2026-05-05 18:35 | 22.31454 | 113.93004 | 38 ft | 0 kts | 161° |
| 2026-05-05 18:35 | 22.31455 | 113.93004 | 38 ft | 0 kts | 161° |
| 2026-05-05 19:05 | 22.31469 | 113.92999 | 36 ft | 4 kts | 161° |
| 2026-05-05 19:05 | 22.31495 | 113.92989 | 36 ft | 4 kts | 161° |
| 2026-05-05 19:05 | 22.31516 | 113.92981 | 36 ft | 4 kts | 166° |
| 2026-05-05 19:06 | 22.31540 | 113.92982 | 36 ft | 4 kts | 214° |
| 2026-05-05 19:06 | 22.31553 | 113.93001 | 35 ft | 4 kts | 251° |
| 2026-05-05 19:06 | 22.31562 | 113.93029 | 34 ft | 4 kts | 251° |
| 2026-05-05 19:06 | 22.31565 | 113.93036 | 37 ft | 0 kts | 251° |
| 2026-05-05 19:10 | 22.31564 | 113.93035 | 38 ft | 0 kts | 251° |
| 2026-05-05 19:11 | 22.31559 | 113.93020 | 38 ft | 4 kts | 251° |
| 2026-05-05 19:11 | 22.31545 | 113.92974 | 38 ft | 8 kts | 251° |
| 2026-05-05 19:11 | 22.31527 | 113.92920 | 38 ft | 8 kts | 251° |
| 2026-05-05 19:11 | 22.31508 | 113.92861 | 38 ft | 9 kts | 251° |
| 2026-05-05 19:12 | 22.31490 | 113.92782 | 38 ft | 11 kts | 270° |
| 2026-05-05 19:12 | 22.31517 | 113.92703 | 36 ft | 11 kts | 296° |
| 2026-05-05 19:12 | 22.31551 | 113.92626 | 38 ft | 11 kts | 295° |
| 2026-05-05 19:12 | 22.31585 | 113.92548 | 38 ft | 12 kts | 295° |
| 2026-05-05 19:13 | 22.31624 | 113.92473 | 38 ft | 11 kts | 309° |
| 2026-05-05 19:13 | 22.31693 | 113.92433 | 38 ft | 11 kts | 342° |
| 2026-05-05 19:13 | 22.31737 | 113.92380 | 38 ft | 10 kts | 272° |
| 2026-05-05 19:13 | 22.31718 | 113.92312 | 38 ft | 10 kts | 251° |
| 2026-05-05 19:14 | 22.31691 | 113.92226 | 38 ft | 14 kts | 251° |
| 2026-05-05 19:14 | 22.31654 | 113.92112 | 38 ft | 17 kts | 251° |
| 2026-05-05 19:14 | 22.31617 | 113.91994 | 38 ft | 17 kts | 251° |
| 2026-05-05 19:14 | 22.31580 | 113.91877 | 38 ft | 16 kts | 251° |
| 2026-05-05 19:15 | 22.31541 | 113.91762 | 38 ft | 16 kts | 249° |
| 2026-05-05 19:15 | 22.31503 | 113.91648 | 38 ft | 16 kts | 250° |
| 2026-05-05 19:15 | 22.31467 | 113.91535 | 38 ft | 16 kts | 251° |
| 2026-05-05 19:15 | 22.31431 | 113.91421 | 38 ft | 16 kts | 251° |
| 2026-05-05 19:16 | 22.31395 | 113.91309 | 38 ft | 16 kts | 251° |
| 2026-05-05 19:16 | 22.31359 | 113.91197 | 38 ft | 16 kts | 250° |
| 2026-05-05 19:16 | 22.31315 | 113.91063 | 38 ft | 21 kts | 250° |
| 2026-05-05 19:16 | 22.31264 | 113.90905 | 38 ft | 24 kts | 250° |
| 2026-05-05 19:17 | 22.31206 | 113.90723 | 38 ft | 26 kts | 251° |
| 2026-05-05 19:17 | 22.31147 | 113.90542 | 37 ft | 25 kts | 250° |
| 2026-05-05 19:17 | 22.31089 | 113.90365 | 38 ft | 25 kts | 251° |
| 2026-05-05 19:17 | 22.31034 | 113.90194 | 38 ft | 23 kts | 251° |
| 2026-05-05 19:18 | 22.30986 | 113.90044 | 38 ft | 19 kts | 251° |
| 2026-05-05 19:18 | 22.30947 | 113.89918 | 38 ft | 18 kts | 251° |
| 2026-05-05 19:18 | 22.30933 | 113.89872 | 38 ft | 5 kts | 256° |
| 2026-05-05 19:18 | 22.30933 | 113.89835 | 38 ft | 5 kts | 282° |
| 2026-05-05 19:19 | 22.30953 | 113.89814 | 38 ft | 4 kts | 327° |
| 2026-05-05 19:19 | 22.30991 | 113.89795 | 36 ft | 10 kts | 337° |
| 2026-05-05 19:19 | 22.31058 | 113.89769 | 35 ft | 9 kts | 340° |
| 2026-05-05 19:19 | 22.31090 | 113.89777 | 35 ft | 2 kts | 68° |
| 2026-05-05 19:20 | 22.31092 | 113.89793 | 35 ft | 2 kts | 77° |
| 2026-05-05 19:20 | 22.31096 | 113.89808 | 35 ft | 0 kts | 72° |
| 2026-05-05 19:20 | 22.31099 | 113.89820 | 36 ft | 11 kts | 72° |
| 2026-05-05 19:20 | 22.31203 | 113.90147 | 36 ft | 81 kts | 71° |
| 2026-05-05 19:21 | 22.31464 | 113.90951 | 38 ft | 144 kts | 70° |
| 2026-05-05 19:21 | 22.31850 | 113.92159 | 118 ft | 189 kts | 72° |
| 2026-05-05 19:21 | 22.32257 | 113.93444 | 1073 ft | 176 kts | 72° |
| 2026-05-05 19:21 | 22.32669 | 113.94748 | 1507 ft | 188 kts | 73° |
| 2026-05-05 19:22 | 22.33089 | 113.96088 | 1797 ft | 194 kts | 73° |
| 2026-05-05 19:22 | 22.33509 | 113.97509 | 2030 ft | 203 kts | 78° |
| 2026-05-05 19:22 | 22.33744 | 113.99043 | 2232 ft | 212 kts | 86° |
| 2026-05-05 19:22 | 22.33821 | 114.00677 | 2437 ft | 223 kts | 96° |
| 2026-05-05 19:23 | 22.33458 | 114.02343 | 2584 ft | 234 kts | 116° |
| 2026-05-05 19:23 | 22.32502 | 114.03823 | 2738 ft | 248 kts | 135° |
| 2026-05-05 19:23 | 22.31124 | 114.04965 | 3134 ft | 251 kts | 149° |
| 2026-05-05 19:23 | 22.29590 | 114.05911 | 3518 ft | 256 kts | 151° |
| 2026-05-05 19:24 | 22.28027 | 114.06897 | 3838 ft | 263 kts | 150° |
| 2026-05-05 19:24 | 22.26984 | 114.07569 | 4109 ft | 265 kts | 150° |
| 2026-05-05 19:24 | 22.25325 | 114.08451 | 4520 ft | 266 kts | 165° |
| 2026-05-05 19:24 | 22.23495 | 114.08723 | 4894 ft | 267 kts | 181° |
| 2026-05-05 19:25 | 22.21622 | 114.08712 | 5284 ft | 270 kts | 183° |
| 2026-05-05 19:25 | 22.19729 | 114.08704 | 5719 ft | 274 kts | 178° |
| 2026-05-05 19:25 | 22.17875 | 114.09213 | 6124 ft | 281 kts | 152° |
| 2026-05-05 19:25 | 22.16433 | 114.10632 | 6524 ft | 288 kts | 124° |
| 2026-05-05 19:26 | 22.15780 | 114.12685 | 6883 ft | 294 kts | 97° |
| 2026-05-05 19:26 | 22.15616 | 114.14896 | 7292 ft | 298 kts | 94° |
| 2026-05-05 19:26 | 22.15507 | 114.17118 | 7666 ft | 302 kts | 94° |
| 2026-05-05 19:26 | 22.15390 | 114.19378 | 8181 ft | 302 kts | 94° |
| 2026-05-05 19:27 | 22.15263 | 114.21647 | 8647 ft | 305 kts | 94° |
| 2026-05-05 19:27 | 22.15131 | 114.23950 | 9080 ft | 309 kts | 94° |
| 2026-05-05 19:27 | 22.15280 | 114.26271 | 9530 ft | 312 kts | 79° |
| 2026-05-05 19:27 | 22.15744 | 114.28566 | 10013 ft | 313 kts | 76° |
| 2026-05-05 19:28 | 22.16256 | 114.30880 | 10287 ft | 323 kts | 76° |
| 2026-05-05 19:28 | 22.16785 | 114.33288 | 10486 ft | 335 kts | 77° |
| 2026-05-05 19:28 | 22.17325 | 114.35773 | 10683 ft | 346 kts | 77° |
| 2026-05-05 19:28 | 22.17901 | 114.38312 | 10873 ft | 358 kts | 73° |
| 2026-05-05 19:29 | 22.18957 | 114.40772 | 11010 ft | 367 kts | 53° |
| 2026-05-05 19:29 | 22.20807 | 114.42685 | 11174 ft | 373 kts | 29° |
| 2026-05-05 19:29 | 22.23224 | 114.43696 | 11322 ft | 376 kts | 6° |
| 2026-05-05 19:29 | 22.25835 | 114.43638 | 11468 ft | 378 kts | 343° |
| 2026-05-05 19:30 | 22.28255 | 114.42562 | 11628 ft | 379 kts | 327° |
| 2026-05-05 19:30 | 22.30696 | 114.41373 | 11771 ft | 392 kts | 341° |
| 2026-05-05 19:30 | 22.33388 | 114.40727 | 12043 ft | 398 kts | 346° |
| 2026-05-05 19:30 | 22.36128 | 114.40199 | 12386 ft | 401 kts | 347° |
| 2026-05-05 19:31 | 22.38892 | 114.39678 | 12710 ft | 404 kts | 347° |
| 2026-05-05 19:31 | 22.41674 | 114.39154 | 13046 ft | 406 kts | 347° |
| 2026-05-05 19:31 | 22.44422 | 114.38610 | 13396 ft | 407 kts | 344° |
| 2026-05-05 19:31 | 22.47071 | 114.37594 | 13725 ft | 402 kts | 328° |
| 2026-05-05 19:32 | 22.49272 | 114.35775 | 14014 ft | 397 kts | 310° |
| 2026-05-05 19:32 | 22.50810 | 114.33324 | 14261 ft | 394 kts | 292° |
| 2026-05-05 19:32 | 22.51610 | 114.30505 | 14518 ft | 393 kts | 280° |
| 2026-05-05 19:32 | 22.52091 | 114.27587 | 14779 ft | 395 kts | 278° |
| 2026-05-05 19:33 | 22.52544 | 114.24651 | 15057 ft | 396 kts | 278° |
| 2026-05-05 19:33 | 22.53005 | 114.21705 | 15307 ft | 398 kts | 279° |
| 2026-05-05 19:33 | 22.53493 | 114.18753 | 15557 ft | 400 kts | 281° |
| 2026-05-05 19:33 | 22.54369 | 114.15884 | 15799 ft | 404 kts | 295° |
| 2026-05-05 19:34 | 22.55942 | 114.13365 | 16034 ft | 409 kts | 311° |
| 2026-05-05 19:34 | 22.58156 | 114.11403 | 16275 ft | 415 kts | 325° |
| 2026-05-05 19:34 | 22.60670 | 114.09856 | 16521 ft | 418 kts | 330° |
| 2026-05-05 19:35 | 22.65972 | 114.07156 | 17005 ft | 422 kts | 333° |
| 2026-05-05 19:35 | 22.68626 | 114.05869 | 17250 ft | 424 kts | 333° |
| 2026-05-05 19:35 | 22.71324 | 114.04548 | 17495 ft | 425 kts | 333° |
| 2026-05-05 19:35 | 22.74021 | 114.03202 | 17734 ft | 427 kts | 332° |
| 2026-05-05 19:36 | 22.76714 | 114.01838 | 17975 ft | 428 kts | 332° |
| 2026-05-05 19:36 | 22.79419 | 114.00452 | 18213 ft | 429 kts | 332° |
| 2026-05-05 19:36 | 22.82129 | 113.99054 | 18359 ft | 433 kts | 332° |
| 2026-05-05 19:36 | 22.84852 | 113.97647 | 18558 ft | 434 kts | 332° |
| 2026-05-05 19:37 | 22.87582 | 113.96236 | 18769 ft | 435 kts | 332° |
| 2026-05-05 19:37 | 22.90313 | 113.94827 | 18969 ft | 436 kts | 332° |
| 2026-05-05 19:37 | 22.93025 | 113.93429 | 19177 ft | 437 kts | 332° |
| 2026-05-05 19:37 | 22.95804 | 113.91984 | 19382 ft | 438 kts | 332° |
| 2026-05-05 19:38 | 22.98552 | 113.90550 | 19584 ft | 439 kts | 332° |
| 2026-05-05 19:38 | 23.01305 | 113.89111 | 19787 ft | 440 kts | 332° |
| 2026-05-05 19:38 | 23.04032 | 113.87686 | 19984 ft | 441 kts | 332° |
| 2026-05-05 19:38 | 23.06792 | 113.86223 | 20182 ft | 441 kts | 330° |
| 2026-05-05 19:39 | 23.09376 | 113.84433 | 20376 ft | 440 kts | 320° |
| 2026-05-05 19:39 | 23.11733 | 113.82316 | 20591 ft | 440 kts | 317° |
| 2026-05-05 19:39 | 23.14008 | 113.80077 | 20757 ft | 442 kts | 315° |
| 2026-05-05 19:39 | 23.16243 | 113.77763 | 20938 ft | 444 kts | 314° |
| 2026-05-05 19:40 | 23.18461 | 113.75415 | 21158 ft | 445 kts | 314° |
| 2026-05-05 19:40 | 23.20680 | 113.73053 | 21368 ft | 446 kts | 314° |
| 2026-05-05 19:40 | 23.22905 | 113.70691 | 21584 ft | 447 kts | 314° |
| 2026-05-05 19:40 | 23.25144 | 113.68326 | 21802 ft | 449 kts | 315° |
| 2026-05-05 19:41 | 23.27389 | 113.65963 | 22024 ft | 450 kts | 315° |
| 2026-05-05 19:41 | 23.29620 | 113.63621 | 22250 ft | 452 kts | 315° |
| 2026-05-05 19:41 | 23.31887 | 113.61245 | 22451 ft | 453 kts | 315° |
| 2026-05-05 19:41 | 23.34158 | 113.58865 | 22694 ft | 454 kts | 315° |
| 2026-05-05 19:42 | 23.36438 | 113.56475 | 22932 ft | 456 kts | 315° |
| 2026-05-05 19:42 | 23.38726 | 113.54075 | 23152 ft | 457 kts | 315° |
| 2026-05-05 19:42 | 23.41032 | 113.51654 | 23383 ft | 459 kts | 315° |
| 2026-05-05 19:42 | 23.43332 | 113.49242 | 23598 ft | 460 kts | 315° |
| 2026-05-05 19:43 | 23.45639 | 113.46816 | 23796 ft | 461 kts | 315° |
| 2026-05-05 19:43 | 23.47927 | 113.44402 | 24003 ft | 461 kts | 315° |
| 2026-05-05 19:43 | 23.50233 | 113.41967 | 24228 ft | 462 kts | 315° |
| 2026-05-05 19:43 | 23.52532 | 113.39539 | 24450 ft | 462 kts | 315° |
| 2026-05-05 19:44 | 23.54865 | 113.37075 | 24676 ft | 463 kts | 315° |
| 2026-05-05 19:44 | 23.57164 | 113.34624 | 24901 ft | 464 kts | 314° |
| 2026-05-05 19:44 | 23.59440 | 113.32174 | 25118 ft | 464 kts | 314° |
| 2026-05-05 19:44 | 23.61733 | 113.29696 | 25353 ft | 465 kts | 314° |
| 2026-05-05 19:45 | 23.64038 | 113.27192 | 25598 ft | 466 kts | 313° |
| 2026-05-05 19:45 | 23.66133 | 113.24496 | 25837 ft | 466 kts | 305° |
| 2026-05-05 19:45 | 23.67841 | 113.21483 | 26062 ft | 467 kts | 297° |
| 2026-05-05 19:45 | 23.69303 | 113.18329 | 26316 ft | 468 kts | 296° |
| 2026-05-05 19:46 | 23.70693 | 113.15089 | 26563 ft | 469 kts | 295° |
| 2026-05-05 19:46 | 23.72023 | 113.11859 | 26827 ft | 470 kts | 294° |
| 2026-05-05 19:46 | 23.73351 | 113.08584 | 27040 ft | 472 kts | 294° |
| 2026-05-05 19:46 | 23.74781 | 113.05368 | 27245 ft | 473 kts | 300° |
| 2026-05-05 19:47 | 23.76603 | 113.02371 | 27472 ft | 475 kts | 308° |
| 2026-05-05 19:47 | 23.78852 | 112.99716 | 27697 ft | 477 kts | 317° |
| 2026-05-05 19:47 | 23.81480 | 112.97527 | 27923 ft | 480 kts | 327° |
| 2026-05-05 19:47 | 23.84450 | 112.95865 | 28162 ft | 483 kts | 336° |
| 2026-05-05 19:48 | 23.87621 | 112.94627 | 28438 ft | 484 kts | 340° |
| 2026-05-05 19:48 | 23.90843 | 112.93521 | 28701 ft | 485 kts | 341° |
| 2026-05-05 19:48 | 23.94100 | 112.92474 | 29007 ft | 484 kts | 341° |
| 2026-05-05 19:48 | 23.97279 | 112.91470 | 29373 ft | 482 kts | 341° |
| 2026-05-05 19:49 | 24.00483 | 112.90443 | 29731 ft | 480 kts | 341° |
| 2026-05-05 19:49 | 24.02631 | 112.89746 | 29942 ft | 478 kts | 341° |
| 2026-05-05 19:49 | 24.06893 | 112.88343 | 30276 ft | 477 kts | 340° |
| 2026-05-05 19:49 | 24.10056 | 112.87291 | 30460 ft | 477 kts | 340° |
| 2026-05-05 19:50 | 24.13222 | 112.86235 | 30637 ft | 478 kts | 340° |
| 2026-05-05 19:50 | 24.16402 | 112.85174 | 30845 ft | 477 kts | 340° |
| 2026-05-05 19:50 | 24.19590 | 112.84116 | 31134 ft | 475 kts | 340° |
| 2026-05-05 19:50 | 24.22730 | 112.83072 | 31336 ft | 474 kts | 340° |
| 2026-05-05 19:51 | 24.25865 | 112.82025 | 31505 ft | 474 kts | 340° |
| 2026-05-05 19:51 | 24.29034 | 112.80973 | 31690 ft | 472 kts | 340° |
| 2026-05-05 19:51 | 24.32164 | 112.79934 | 31834 ft | 472 kts | 339° |
| 2026-05-05 19:51 | 24.35317 | 112.78884 | 31964 ft | 473 kts | 339° |
| 2026-05-05 19:52 | 24.38408 | 112.77746 | 32076 ft | 471 kts | 334° |
| 2026-05-05 19:52 | 24.44093 | 112.74225 | 32194 ft | 468 kts | 319° |
| 2026-05-05 19:52 | 24.46476 | 112.71853 | 32364 ft | 464 kts | 311° |
| 2026-05-05 19:53 | 24.48516 | 112.69090 | 32582 ft | 461 kts | 303° |
| 2026-05-05 19:53 | 24.50118 | 112.66076 | 32771 ft | 459 kts | 295° |
| 2026-05-05 19:53 | 24.51284 | 112.62816 | 32935 ft | 458 kts | 287° |
| 2026-05-05 19:53 | 24.51988 | 112.59402 | 33046 ft | 458 kts | 279° |
| 2026-05-05 19:54 | 24.52213 | 112.55894 | 33187 ft | 459 kts | 271° |
| 2026-05-05 19:54 | 24.51990 | 112.52438 | 33314 ft | 460 kts | 266° |
| 2026-05-05 19:54 | 24.51820 | 112.48912 | 33464 ft | 457 kts | 272° |
| 2026-05-05 19:54 | 24.51952 | 112.45437 | 33593 ft | 456 kts | 275° |
| 2026-05-05 19:55 | 24.52192 | 112.41959 | 33804 ft | 453 kts | 276° |
| 2026-05-05 19:55 | 24.52476 | 112.38535 | 33987 ft | 452 kts | 276° |
| 2026-05-05 19:55 | 24.52789 | 112.35110 | 34061 ft | 452 kts | 277° |
| 2026-05-05 19:56 | 24.53462 | 112.28193 | 34068 ft | 456 kts | 277° |
| 2026-05-05 19:56 | 24.54134 | 112.21288 | 34071 ft | 458 kts | 277° |
| 2026-05-05 19:57 | 24.54800 | 112.14333 | 34069 ft | 458 kts | 277° |
| 2026-05-05 19:57 | 24.55461 | 112.07365 | 34062 ft | 459 kts | 277° |
| 2026-05-05 19:58 | 24.56117 | 112.00364 | 34066 ft | 459 kts | 277° |
| 2026-05-05 19:58 | 24.56766 | 111.93398 | 34067 ft | 459 kts | 277° |
| 2026-05-05 19:59 | 24.57410 | 111.86456 | 34060 ft | 459 kts | 277° |
| 2026-05-05 19:59 | 24.58054 | 111.79502 | 34056 ft | 459 kts | 277° |
| 2026-05-05 20:00 | 24.58700 | 111.72482 | 34055 ft | 460 kts | 277° |
| 2026-05-05 20:00 | 24.59341 | 111.65488 | 34057 ft | 460 kts | 277° |
| 2026-05-05 20:01 | 24.59978 | 111.58485 | 34054 ft | 460 kts | 277° |
| 2026-05-05 20:01 | 24.60610 | 111.51496 | 34047 ft | 460 kts | 277° |
| 2026-05-05 20:02 | 24.61239 | 111.44524 | 34046 ft | 460 kts | 277° |
| 2026-05-05 20:02 | 24.61867 | 111.37540 | 34044 ft | 460 kts | 277° |
| 2026-05-05 20:03 | 24.62492 | 111.30528 | 34043 ft | 461 kts | 277° |
| 2026-05-05 20:03 | 24.63112 | 111.23479 | 34044 ft | 461 kts | 277° |
| 2026-05-05 20:04 | 24.63712 | 111.16502 | 34042 ft | 460 kts | 277° |
| 2026-05-05 20:04 | 24.64310 | 111.09515 | 34037 ft | 462 kts | 277° |
| 2026-05-05 20:05 | 24.64913 | 111.02455 | 34030 ft | 463 kts | 277° |
| 2026-05-05 20:05 | 24.65509 | 110.95430 | 34033 ft | 463 kts | 277° |
| 2026-05-05 20:06 | 24.66107 | 110.88355 | 34036 ft | 463 kts | 277° |
| 2026-05-05 20:06 | 24.67221 | 110.81432 | 34027 ft | 461 kts | 288° |
| 2026-05-05 20:07 | 24.70004 | 110.75138 | 34029 ft | 462 kts | 304° |
| 2026-05-05 20:07 | 24.74297 | 110.69879 | 34024 ft | 465 kts | 314° |
| 2026-05-05 20:08 | 24.78984 | 110.64951 | 34026 ft | 465 kts | 315° |
| 2026-05-05 20:08 | 24.83699 | 110.60068 | 34016 ft | 463 kts | 314° |
| 2026-05-05 20:09 | 24.88353 | 110.55197 | 34018 ft | 462 kts | 314° |
| 2026-05-05 20:09 | 24.93017 | 110.50279 | 34022 ft | 463 kts | 314° |
| 2026-05-05 20:10 | 24.97649 | 110.45379 | 34018 ft | 463 kts | 314° |
| 2026-05-05 20:10 | 25.02294 | 110.40461 | 34022 ft | 467 kts | 314° |
| 2026-05-05 20:11 | 25.06983 | 110.35505 | 34016 ft | 466 kts | 314° |